createdAt,value
2019-02-23T00:00:41.071Z,31.00
2019-02-23T00:03:10.656Z,30.68
2019-02-23T00:05:39.967Z,36.25
2019-02-23T00:08:09.319Z,34.00
2019-02-23T00:10:39.059Z,32.40
2019-02-23T00:13:08.825Z,30.75
2019-02-23T00:15:38.306Z,36.28
2019-02-23T00:18:08.033Z,35.95
2019-02-23T00:20:37.354Z,34.90
2019-02-23T00:23:06.757Z,31.37
2019-02-23T00:25:36.108Z,29.90
2019-02-23T00:28:05.733Z,32.58
2019-02-23T00:30:35.144Z,29.90
2019-02-23T00:33:04.520Z,33.90
2019-02-23T00:35:34.125Z,31.57
2019-02-23T00:38:03.828Z,31.65
2019-02-23T00:40:33.141Z,30.48
2019-02-23T00:43:02.447Z,30.02
2019-02-23T00:45:32.156Z,27.73
2019-02-23T00:48:01.753Z,30.10
2019-02-23T00:50:31.872Z,30.23
2019-02-23T00:53:04.262Z,29.05
2019-02-23T00:55:33.851Z,29.40
2019-02-23T00:58:03.162Z,30.57
2019-02-23T01:00:32.568Z,29.32
2019-02-23T01:03:02.162Z,29.87
2019-02-23T01:05:31.602Z,27.27
2019-02-23T01:08:04.149Z,25.80
2019-02-23T01:10:33.498Z,30.65
2019-02-23T01:13:03.182Z,28.02
2019-02-23T01:15:32.527Z,23.65
2019-02-23T01:18:01.851Z,27.37
2019-02-23T01:20:31.467Z,25.77
2019-02-23T01:23:01.196Z,25.70
2019-02-23T01:25:30.612Z,28.40
2019-02-23T01:28:00.194Z,26.25
2019-02-23T01:30:29.899Z,30.15
2019-02-23T01:32:59.211Z,25.80
2019-02-23T01:35:28.510Z,27.00
2019-02-23T01:37:58.201Z,25.82
2019-02-23T01:40:27.937Z,26.85
2019-02-23T01:42:57.273Z,31.17
2019-02-23T01:45:26.633Z,26.42
2019-02-23T01:47:55.948Z,27.25
2019-02-23T01:50:25.249Z,26.40
2019-02-23T01:52:54.912Z,27.87
2019-02-23T01:55:24.229Z,27.17
2019-02-23T01:57:53.617Z,26.12
2019-02-23T02:00:23.522Z,27.87
2019-02-23T02:02:52.997Z,26.42
2019-02-23T02:05:22.951Z,22.67
2019-02-23T02:07:52.754Z,22.13
2019-02-23T02:10:22.792Z,22.15
2019-02-23T02:12:52.103Z,19.95
2019-02-23T02:15:21.473Z,25.12
2019-02-23T02:17:50.870Z,21.55
2019-02-23T02:20:22.832Z,22.65
2019-02-23T02:22:52.229Z,21.70
2019-02-23T02:25:21.854Z,22.87
2019-02-23T02:27:51.163Z,24.00
2019-02-23T02:30:20.520Z,20.88
2019-02-23T02:32:50.171Z,23.02
2019-02-23T02:35:19.783Z,22.58
2019-02-23T02:37:49.209Z,21.00
2019-02-23T02:40:18.509Z,23.80
2019-02-23T02:42:48.281Z,22.67
2019-02-23T02:45:18.003Z,19.05
2019-02-23T02:47:47.375Z,16.52
2019-02-23T02:50:24.176Z,18.10
2019-02-23T02:52:47.801Z,17.05
2019-02-23T02:55:17.106Z,17.48
2019-02-23T02:57:46.771Z,17.82
2019-02-23T03:00:18.921Z,15.03
2019-02-23T03:02:48.239Z,14.47
2019-02-23T03:05:17.681Z,15.53
2019-02-23T03:07:47.321Z,16.15
2019-02-23T03:10:16.957Z,15.55
2019-02-23T03:12:46.564Z,16.02
2019-02-23T03:15:16.261Z,15.88
2019-02-23T03:17:45.866Z,16.62
2019-02-23T03:20:15.168Z,18.48
2019-02-23T03:22:47.641Z,17.67
2019-02-23T03:25:17.109Z,18.67
2019-02-23T03:27:46.417Z,17.25
2019-02-23T03:30:15.815Z,17.98
2019-02-23T03:32:45.119Z,20.97
2019-02-23T03:35:14.742Z,17.73
2019-02-23T03:37:44.497Z,18.75
2019-02-23T03:40:13.844Z,19.45
2019-02-23T03:42:43.162Z,17.30
2019-02-23T03:45:12.669Z,18.98
2019-02-23T03:47:41.987Z,19.80
2019-02-23T03:50:11.357Z,18.57
2019-02-23T03:52:41.007Z,19.50
2019-02-23T03:55:10.456Z,18.07
2019-02-23T03:57:40.094Z,18.10
2019-02-23T04:00:11.448Z,17.12
2019-02-23T04:02:40.761Z,18.60
2019-02-23T04:05:10.441Z,19.30
2019-02-23T04:07:39.829Z,20.23
2019-02-23T04:10:10.088Z,18.70
2019-02-23T04:12:39.462Z,20.37
2019-02-23T04:15:09.677Z,19.73
2019-02-23T04:17:39.022Z,17.02
2019-02-23T04:20:09.143Z,17.15
2019-02-23T04:22:38.506Z,18.50
2019-02-23T04:25:09.694Z,19.07
2019-02-23T04:27:39.041Z,17.65
2019-02-23T04:30:09.892Z,18.15
2019-02-23T04:32:39.211Z,17.30
2019-02-23T04:35:08.529Z,18.60
2019-02-23T04:37:38.215Z,18.45
2019-02-23T04:40:08.476Z,17.50
2019-02-23T04:42:37.843Z,17.92
2019-02-23T04:45:08.981Z,18.77
2019-02-23T04:47:38.369Z,18.27
2019-02-23T04:50:11.556Z,18.92
2019-02-23T04:52:41.198Z,18.40
2019-02-23T04:55:11.239Z,18.52
2019-02-23T04:57:40.572Z,19.37
2019-02-23T05:00:16.255Z,18.75
2019-02-23T05:02:45.563Z,18.42
2019-02-23T05:05:14.920Z,18.82
2019-02-23T05:07:44.347Z,17.95
2019-02-23T05:10:13.730Z,18.37
2019-02-23T05:12:43.357Z,19.27
2019-02-23T05:15:13.105Z,19.17
2019-02-23T05:17:42.758Z,19.42
2019-02-23T05:20:12.385Z,16.35
2019-02-23T05:22:44.612Z,18.70
2019-02-23T05:25:13.993Z,19.00
2019-02-23T05:27:43.378Z,20.20
2019-02-23T05:30:13.915Z,18.73
2019-02-23T05:32:43.501Z,17.40
2019-02-23T05:35:14.319Z,19.85
2019-02-23T05:37:44.038Z,17.67
2019-02-23T05:40:14.007Z,19.65
2019-02-23T05:42:43.413Z,20.90
2019-02-23T05:45:12.856Z,19.37
2019-02-23T05:47:42.481Z,18.30
2019-02-23T05:50:12.605Z,19.00
2019-02-23T05:52:41.963Z,18.85
2019-02-23T05:55:11.692Z,19.70
2019-02-23T05:57:41.001Z,19.50
2019-02-23T06:00:15.651Z,19.20
2019-02-23T06:02:45.400Z,20.17
2019-02-23T06:05:15.148Z,18.75
2019-02-23T06:07:47.628Z,20.08
2019-02-23T06:10:17.334Z,19.90
2019-02-23T06:12:46.741Z,19.45
2019-02-23T06:15:16.202Z,18.85
2019-02-23T06:17:45.596Z,19.50
2019-02-23T06:20:15.141Z,19.70
2019-02-23T06:22:46.741Z,18.57
2019-02-23T06:25:15.625Z,20.15
2019-02-23T06:27:44.969Z,21.45
2019-02-23T06:30:14.701Z,20.50
2019-02-23T06:32:43.996Z,21.07
2019-02-23T06:35:13.367Z,22.48
2019-02-23T06:37:43.020Z,20.02
2019-02-23T06:40:13.110Z,20.57
2019-02-23T06:42:42.547Z,18.65
2019-02-23T06:45:13.815Z,22.77
2019-02-23T06:47:46.573Z,21.05
2019-02-23T06:50:15.881Z,20.80
2019-02-23T06:52:45.248Z,21.27
2019-02-23T06:55:14.565Z,23.55
2019-02-23T06:57:43.917Z,22.00
2019-02-23T07:00:19.009Z,22.50
2019-02-23T07:02:48.606Z,22.32
2019-02-23T07:05:17.990Z,22.90
2019-02-23T07:07:47.322Z,22.45
2019-02-23T07:10:16.921Z,22.48
2019-02-23T07:12:46.237Z,23.02
2019-02-23T07:15:15.634Z,23.15
2019-02-23T07:17:45.325Z,24.80
2019-02-23T07:20:14.952Z,23.62
2019-02-23T07:22:44.369Z,23.40
2019-02-23T07:25:13.693Z,23.05
2019-02-23T07:27:43.017Z,24.80
2019-02-23T07:30:14.762Z,21.75
2019-02-23T07:32:44.087Z,23.20
2019-02-23T07:35:13.822Z,24.63
2019-02-23T07:37:43.225Z,23.98
2019-02-23T07:40:15.293Z,24.82
2019-02-23T07:42:44.887Z,23.18
2019-02-23T07:45:14.314Z,24.00
2019-02-23T07:47:43.907Z,22.93
2019-02-23T07:50:16.090Z,25.00
2019-02-23T07:52:45.450Z,22.20
2019-02-23T07:55:14.955Z,25.00
2019-02-23T07:57:44.317Z,23.62
2019-02-23T08:00:15.109Z,23.30
2019-02-23T08:02:44.425Z,23.80
2019-02-23T08:05:13.826Z,20.70
2019-02-23T08:07:43.930Z,23.32
2019-02-23T08:10:13.731Z,23.62
2019-02-23T08:12:43.054Z,24.50
2019-02-23T08:15:13.151Z,23.05
2019-02-23T08:17:42.501Z,22.42
2019-02-23T08:20:15.461Z,22.30
2019-02-23T08:22:44.860Z,20.95
2019-02-23T08:25:15.856Z,21.90
2019-02-23T08:27:45.181Z,22.85
2019-02-23T08:30:18.561Z,24.67
2019-02-23T08:32:48.229Z,19.77
2019-02-23T08:35:17.922Z,21.42
2019-02-23T08:37:47.498Z,21.77
2019-02-23T08:40:19.736Z,21.12
2019-02-23T08:42:49.055Z,21.75
2019-02-23T08:45:18.796Z,19.92
2019-02-23T08:47:48.409Z,22.58
2019-02-23T08:50:18.144Z,21.20
2019-02-23T08:52:49.536Z,21.12
2019-02-23T08:55:18.885Z,22.58
2019-02-23T08:57:48.483Z,19.27
2019-02-23T09:00:19.321Z,20.85
2019-02-23T09:02:48.667Z,20.23
2019-02-23T09:05:17.991Z,21.40
2019-02-23T09:07:47.404Z,20.27
2019-02-23T09:10:19.663Z,18.80
2019-02-23T09:12:48.967Z,20.72
2019-02-23T09:15:18.439Z,20.68
2019-02-23T09:17:48.106Z,19.75
2019-02-23T09:20:28.299Z,19.67
2019-02-23T09:22:59.495Z,20.15
2019-02-23T09:25:19.591Z,19.62
2019-02-23T09:27:48.909Z,21.85
2019-02-23T09:30:18.552Z,22.13
2019-02-23T09:32:47.914Z,20.65
2019-02-23T09:35:17.705Z,19.35
2019-02-23T09:37:47.063Z,19.30
2019-02-23T09:40:20.064Z,18.70
2019-02-23T09:42:49.378Z,19.20
2019-02-23T09:45:20.500Z,20.88
2019-02-23T09:47:49.854Z,21.52
2019-02-23T09:50:19.178Z,18.75
2019-02-23T09:52:48.581Z,19.07
2019-02-23T09:55:17.970Z,19.07
2019-02-23T09:57:47.611Z,19.57
2019-02-23T10:00:17.203Z,21.17
2019-02-23T10:02:46.508Z,21.27
2019-02-23T10:05:15.889Z,19.92
2019-02-23T10:07:45.289Z,20.70
2019-02-23T10:10:14.772Z,21.05
2019-02-23T10:12:44.354Z,19.55
2019-02-23T10:15:14.104Z,20.23
2019-02-23T10:17:43.418Z,21.45
2019-02-23T10:20:14.939Z,21.15
2019-02-23T10:22:44.375Z,20.60
2019-02-23T10:25:13.935Z,20.80
2019-02-23T10:27:43.578Z,18.90
2019-02-23T10:30:16.573Z,19.60
2019-02-23T10:32:46.129Z,21.45
2019-02-23T10:35:15.491Z,20.62
2019-02-23T10:37:45.181Z,19.98
2019-02-23T10:40:14.803Z,19.23
2019-02-23T10:42:44.488Z,19.10
2019-02-23T10:45:15.078Z,19.57
2019-02-23T10:47:44.420Z,21.85
2019-02-23T10:50:17.109Z,20.23
2019-02-23T10:52:46.792Z,24.05
2019-02-23T10:55:16.674Z,22.42
2019-02-23T10:57:46.320Z,20.02
2019-02-23T11:00:20.075Z,19.30
2019-02-23T11:02:49.454Z,19.07
2019-02-23T11:05:20.172Z,19.85
2019-02-23T11:07:49.537Z,22.67
2019-02-23T11:10:19.262Z,18.37
2019-02-23T11:12:48.725Z,18.75
2019-02-23T11:15:20.038Z,17.95
2019-02-23T11:17:49.381Z,19.75
2019-02-23T11:20:19.356Z,20.62
2019-02-23T11:22:48.962Z,18.70
2019-02-23T11:25:18.449Z,21.07
2019-02-23T11:27:48.057Z,19.20
2019-02-23T11:30:18.388Z,20.52
2019-02-23T11:32:47.989Z,20.40
2019-02-23T11:35:18.036Z,19.30
2019-02-23T11:37:47.428Z,19.98
2019-02-23T11:40:17.202Z,21.12
2019-02-23T11:42:49.897Z,20.35
2019-02-23T11:45:19.246Z,17.65
2019-02-23T11:47:48.560Z,18.42
2019-02-23T11:50:17.938Z,19.48
2019-02-23T11:52:47.321Z,19.20
2019-02-23T11:55:16.908Z,19.00
2019-02-23T11:57:46.257Z,28.52
2019-02-23T12:00:16.300Z,18.82
2019-02-23T12:02:52.544Z,18.32
2019-02-23T12:05:16.980Z,17.45
2019-02-23T12:07:46.697Z,19.35
2019-02-23T12:10:17.335Z,18.02
2019-02-23T12:12:46.654Z,18.67
2019-02-23T12:15:16.035Z,16.62
2019-02-23T12:17:45.615Z,17.37
2019-02-23T12:20:15.582Z,19.70
2019-02-23T12:22:45.258Z,18.92
2019-02-23T12:25:16.164Z,18.52
2019-02-23T12:27:46.247Z,18.57
2019-02-23T12:30:15.943Z,18.15
2019-02-23T12:32:45.289Z,19.35
2019-02-23T12:35:14.592Z,18.45
2019-02-23T12:37:43.958Z,19.20
2019-02-23T12:40:14.034Z,18.70
2019-02-23T12:42:43.385Z,19.05
2019-02-23T12:45:14.651Z,18.12
2019-02-23T12:47:44.403Z,18.75
2019-02-23T12:50:14.923Z,18.05
2019-02-23T12:52:44.278Z,16.90
2019-02-23T12:55:13.829Z,19.37
2019-02-23T12:57:43.185Z,17.60
2019-02-23T13:00:15.731Z,17.30
2019-02-23T13:02:45.049Z,17.67
2019-02-23T13:05:14.548Z,18.98
2019-02-23T13:07:44.165Z,18.32
2019-02-23T13:10:14.570Z,18.25
2019-02-23T13:13:08.515Z,17.12
2019-02-23T13:15:44.943Z,16.82
2019-02-23T13:18:27.929Z,17.05
2019-02-23T13:21:13.203Z,16.97
2019-02-23T13:24:12.716Z,18.90
2019-02-23T13:27:04.292Z,15.05
2019-02-23T13:30:12.650Z,17.90
2019-02-23T13:33:07.440Z,18.60
2019-02-23T13:36:02.848Z,16.80
2019-02-23T13:38:42.426Z,14.68
2019-02-23T13:41:34.802Z,15.45
2019-02-23T13:44:19.407Z,17.17
2019-02-23T13:47:02.315Z,15.48
2019-02-23T13:50:12.753Z,15.93
2019-02-23T13:53:01.761Z,15.35
2019-02-23T13:55:53.664Z,16.60
2019-02-23T13:58:36.777Z,22.42
2019-02-23T14:01:43.500Z,17.07
2019-02-23T14:04:43.470Z,14.55
2019-02-23T14:07:29.513Z,15.55
2019-02-23T14:10:41.511Z,15.55
2019-02-23T14:13:42.358Z,19.00
2019-02-23T14:16:41.810Z,16.77
2019-02-23T14:19:43.066Z,17.12
2019-02-23T14:22:47.720Z,14.85
2019-02-23T14:25:47.075Z,15.15
2019-02-23T14:28:32.860Z,16.30
2019-02-23T14:31:24.416Z,16.85
2019-02-23T14:34:30.568Z,18.05
2019-02-23T14:37:22.525Z,18.45
2019-02-23T14:40:25.171Z,18.02
2019-02-23T14:43:13.936Z,15.60
2019-02-23T14:46:20.900Z,17.10
2019-02-23T14:49:06.607Z,16.50
2019-02-23T14:52:14.627Z,15.08
2019-02-23T14:55:16.034Z,17.20
2019-02-23T14:58:07.127Z,18.23
2019-02-23T15:01:12.327Z,16.77
2019-02-23T15:04:19.714Z,17.65
2019-02-23T15:06:59.224Z,17.12
2019-02-23T15:09:59.911Z,16.97
2019-02-23T15:12:54.627Z,16.97
2019-02-23T15:15:45.089Z,17.90
2019-02-23T15:19:08.659Z,16.90
2019-02-23T15:22:19.969Z,15.65
2019-02-23T15:25:31.378Z,15.05
2019-02-23T15:28:35.631Z,15.98
2019-02-23T15:31:11.137Z,15.10
2019-02-23T15:34:25.432Z,16.37
2019-02-23T15:37:17.087Z,14.75
2019-02-23T15:40:28.592Z,14.70
2019-02-23T15:43:23.527Z,15.80
2019-02-23T15:46:10.848Z,15.93
2019-02-23T15:48:56.453Z,15.50
2019-02-23T15:51:25.811Z,16.75
2019-02-23T15:53:55.140Z,15.10
2019-02-23T15:56:24.577Z,16.12
2019-02-23T15:58:53.889Z,14.83
2019-02-23T16:01:23.267Z,15.15
2019-02-23T16:03:52.964Z,18.00
2019-02-23T16:06:22.575Z,17.85
2019-02-23T16:08:51.937Z,15.23
2019-02-23T16:11:21.313Z,14.73
2019-02-23T16:13:50.949Z,15.68
2019-02-23T16:16:20.285Z,15.03
2019-02-23T16:18:49.762Z,13.98
2019-02-23T16:21:20.251Z,15.95
2019-02-23T16:23:49.892Z,15.38
2019-02-23T16:26:19.404Z,15.88
2019-02-23T16:28:48.718Z,14.47
2019-02-23T16:31:18.071Z,16.87
2019-02-23T16:33:47.428Z,13.60
2019-02-23T16:36:16.743Z,15.75
2019-02-23T16:38:46.090Z,14.15
2019-02-23T16:41:15.760Z,15.32
2019-02-23T16:43:45.130Z,17.62
2019-02-23T16:46:14.700Z,14.80
2019-02-23T16:48:44.371Z,15.23
2019-02-23T16:51:13.707Z,16.52
2019-02-23T16:53:43.051Z,14.63
2019-02-23T16:56:12.455Z,14.83
2019-02-23T16:58:41.803Z,15.00
2019-02-23T17:01:11.124Z,15.65
2019-02-23T17:03:40.774Z,15.70
2019-02-23T17:06:10.096Z,16.75
2019-02-23T17:08:39.482Z,15.72
2019-02-23T17:11:08.845Z,16.93
2019-02-23T17:13:38.516Z,16.62
2019-02-23T17:16:10.566Z,17.50
2019-02-23T17:18:39.926Z,15.40
2019-02-23T17:21:09.294Z,15.83
2019-02-23T17:23:38.607Z,17.77
2019-02-23T17:26:08.355Z,15.70
2019-02-23T17:28:38.013Z,16.00
2019-02-23T17:31:07.325Z,14.65
2019-02-23T17:33:36.665Z,14.55
2019-02-23T17:36:06.304Z,14.63
2019-02-23T17:38:35.698Z,17.73
2019-02-23T17:41:05.287Z,17.42
2019-02-23T17:43:34.654Z,20.23
2019-02-23T17:46:04.057Z,20.23
2019-02-23T17:48:33.781Z,17.80
2019-02-23T17:51:03.100Z,19.05
2019-02-23T17:53:32.579Z,18.48
2019-02-23T17:56:01.908Z,21.70
2019-02-23T17:58:31.368Z,16.77
2019-02-23T18:01:00.699Z,18.25
2019-02-23T18:03:30.013Z,20.57
2019-02-23T18:05:59.316Z,18.12
2019-02-23T18:08:28.747Z,18.30
2019-02-23T18:10:58.076Z,18.27
2019-02-23T18:13:27.743Z,18.85
2019-02-23T18:15:57.450Z,16.60
2019-02-23T18:18:26.760Z,16.62
2019-02-23T18:20:56.074Z,16.77
2019-02-23T18:23:25.428Z,18.27
2019-02-23T18:25:54.765Z,18.40
2019-02-23T18:28:24.146Z,17.50
2019-02-23T18:30:53.568Z,18.82
2019-02-23T18:33:22.877Z,17.23
2019-02-23T18:35:52.471Z,19.37
2019-02-23T18:38:22.166Z,19.57
2019-02-23T18:40:51.785Z,18.65
2019-02-23T18:43:21.095Z,17.82
2019-02-23T18:45:50.445Z,20.35
2019-02-23T18:48:20.084Z,18.90
2019-02-23T18:50:49.432Z,19.92
2019-02-23T18:53:18.814Z,21.07
2019-02-23T18:55:48.159Z,18.52
2019-02-23T18:58:17.480Z,18.10
2019-02-23T19:00:46.890Z,19.20
2019-02-23T19:03:16.643Z,19.32
2019-02-23T19:05:49.947Z,19.32
2019-02-23T19:08:17.325Z,18.25
2019-02-23T19:10:46.635Z,17.15
2019-02-23T19:13:22.143Z,17.27
2019-02-23T19:15:51.448Z,19.87
2019-02-23T19:18:21.441Z,22.20
2019-02-23T19:20:51.129Z,20.20
2019-02-23T19:23:20.474Z,21.60
2019-02-23T19:25:49.786Z,22.07
2019-02-23T19:28:19.144Z,29.32
2019-02-23T19:30:48.454Z,37.90
2019-02-23T19:33:17.761Z,48.25
2019-02-23T19:35:47.158Z,58.42
2019-02-23T19:38:16.478Z,56.35
2019-02-23T19:40:45.794Z,84.32
2019-02-23T19:43:15.439Z,59.60
2019-02-23T19:45:45.086Z,80.87
2019-02-23T19:48:14.791Z,118.70
2019-02-23T19:50:51.718Z,92.85
2019-02-23T19:53:21.036Z,75.60
2019-02-23T19:55:50.604Z,54.20
2019-02-23T19:58:20.002Z,59.25
2019-02-23T20:00:49.662Z,41.65
2019-02-23T20:03:19.261Z,53.92
2019-02-23T20:05:48.657Z,49.45
2019-02-23T20:08:18.272Z,40.17
2019-02-23T20:10:47.912Z,81.85
2019-02-23T20:13:17.517Z,40.83
2019-02-23T20:15:47.203Z,29.35
2019-02-23T20:18:16.523Z,26.35
2019-02-23T20:20:45.901Z,24.25
2019-02-23T20:23:15.504Z,22.35
2019-02-23T20:25:44.812Z,22.30
2019-02-23T20:28:14.514Z,18.48
2019-02-23T20:30:43.817Z,18.77
2019-02-23T20:33:13.146Z,20.35
2019-02-23T20:35:42.494Z,23.40
2019-02-23T20:38:11.870Z,20.10
2019-02-23T20:40:41.173Z,19.32
2019-02-23T20:43:10.537Z,21.48
2019-02-23T20:45:39.846Z,19.25
2019-02-23T20:48:09.426Z,19.40
2019-02-23T20:50:40.262Z,19.90
2019-02-23T20:53:10.119Z,22.58
2019-02-23T20:55:39.444Z,21.52
2019-02-23T20:58:09.085Z,22.35
2019-02-23T21:00:38.694Z,22.90
2019-02-23T21:03:08.299Z,20.05
2019-02-23T21:05:37.661Z,22.60
2019-02-23T21:08:06.971Z,21.52
2019-02-23T21:10:36.329Z,25.95
2019-02-23T21:13:06.015Z,19.40
2019-02-23T21:15:35.625Z,20.82
2019-02-23T21:18:05.236Z,20.80
2019-02-23T21:20:34.597Z,20.20
2019-02-23T21:23:04.245Z,19.82
2019-02-23T21:25:33.618Z,22.50
2019-02-23T21:28:02.973Z,20.50
2019-02-23T21:30:32.598Z,22.22
2019-02-23T21:33:02.153Z,20.50
2019-02-23T21:35:31.509Z,20.10
2019-02-23T21:38:00.822Z,20.82
2019-02-23T21:40:30.184Z,22.02
2019-02-23T21:42:59.553Z,21.75
2019-02-23T21:45:28.874Z,23.90
2019-02-23T21:47:58.474Z,20.82
2019-02-23T21:50:27.839Z,21.90
2019-02-23T21:52:57.149Z,21.60
2019-02-23T21:55:26.461Z,22.40
2019-02-23T21:57:55.830Z,23.20
2019-02-23T22:00:25.330Z,21.52
2019-02-23T22:02:54.647Z,20.85
2019-02-23T22:05:24.039Z,22.58
2019-02-23T22:07:53.689Z,21.57
2019-02-23T22:10:23.295Z,20.08
2019-02-23T22:12:52.669Z,20.85
2019-02-23T22:15:22.004Z,20.00
2019-02-23T22:17:51.288Z,21.23
2019-02-23T22:20:20.655Z,20.52
2019-02-23T22:22:49.969Z,20.52
2019-02-23T22:25:19.611Z,19.73
2019-02-23T22:27:48.964Z,25.57
2019-02-23T22:30:18.275Z,20.25
2019-02-23T22:32:47.633Z,21.40
2019-02-23T22:35:17.316Z,20.05
2019-02-23T22:37:46.638Z,21.93
2019-02-23T22:40:15.957Z,20.20
2019-02-23T22:42:45.336Z,21.50
2019-02-23T22:45:14.932Z,21.17
2019-02-23T22:47:44.246Z,20.05
2019-02-23T22:50:14.854Z,18.30
2019-02-23T22:52:44.234Z,23.42
2019-02-23T22:55:13.542Z,23.75
2019-02-23T22:57:42.912Z,22.37
2019-02-23T23:00:16.064Z,19.67
2019-02-23T23:02:45.409Z,21.10
2019-02-23T23:05:14.789Z,20.08
2019-02-23T23:07:44.475Z,20.30
2019-02-23T23:10:14.059Z,20.65
2019-02-23T23:12:43.416Z,20.55
2019-02-23T23:15:12.827Z,18.87
2019-02-23T23:17:42.476Z,20.68
2019-02-23T23:20:11.869Z,22.42
2019-02-23T23:22:41.179Z,21.55
2019-02-23T23:25:10.807Z,19.90
2019-02-23T23:27:48.935Z,23.35
2019-02-23T23:30:11.236Z,19.67
2019-02-23T23:32:40.554Z,20.15
2019-02-23T23:35:10.125Z,20.08
2019-02-23T23:37:39.431Z,21.82
2019-02-23T23:40:09.058Z,19.70
2019-02-23T23:42:38.424Z,20.40
2019-02-23T23:45:08.132Z,20.02
2019-02-23T23:47:37.769Z,18.57
2019-02-23T23:50:07.482Z,20.02
2019-02-23T23:52:36.793Z,20.75
2019-02-23T23:55:06.939Z,19.40
2019-02-23T23:57:36.303Z,18.82
